Smith Valley, Nevada Weather observations

Data are for 10 minute period ending at time listed.
 Day   Time   Solar   Ave.   Ave.  Ave.  Vector  Max.   Baro.   Total    
  of    of     Rad.   Air    Rel.  Wind   Wind   Wind  Press.  Precip.   
Year   Day            Temp.  Hum.  Speed  Dir.   Gust                    
2026   (PST)  Kw/m2    F      %     mph   deg.    mph    mb.     in.     
-------------------------------------------------------------------------
 242   20:00   0.00   67.5    41    3.2   300     4.1   852.1    0.00 
 242   20:10   0.00   67.5    37    3.7   325     4.6   852.2    0.00 
 242   20:20   0.00   67.4    37    4.5   319     5.7   852.3    0.00 
 242   20:30   0.00   68.3    37    3.9   309     4.6   852.5    0.00 
 242   20:40   0.00   63.6    49    2.8   294     5.1   852.5    0.00 
 242   20:50   0.00   62.6    48    2.5   292     3.6   852.6    0.00 
 242   21:00   0.00   64.3    40    3.6   340     5.5   852.7    0.00 
 242   21:10   0.00   65.7    33    2.3     4     4.6   852.7    0.00 
 242   21:20   0.00   64.8    32    2.9     5     4.0   852.7    0.00 
 242   21:30   0.00   63.0    40    1.4   257     3.1   852.7    0.00 
 242   21:40   0.00   60.4    42    1.6   308     2.7   852.7    0.00 
 242   21:50   0.00   59.5    44    0.9   289     1.9   852.8    0.00 
 242   22:00   0.00   58.5    47    0.6   284     2.8   852.7    0.00 
 242   22:10   0.00   58.8    44    0.9   330     2.4   852.7    0.00 
 242   22:20   0.00   58.4    50    3.5   189     5.7   852.8    0.00 
 242   22:30   0.00   56.6    61    3.3   186     4.8   852.8    0.00 
 242   22:40   0.00   55.4    64    2.5   186     4.3   852.8    0.00 
 242   22:50   0.00   55.2    62    3.3   152     5.1   852.8    0.00 
 242   23:00   0.00   55.7    54    3.3   142     5.8   852.9    0.00 
 242   23:10   0.00   57.2    47    4.1   130     6.8   853.0    0.00 
 242   23:20   0.00   58.1    40    5.3   152     7.2   853.0    0.00 
 242   23:30   0.00   58.4    41    5.7   172     6.9   853.0    0.00 
 242   23:40   0.00   56.4    48    5.2   198     7.0   853.0    0.00 
 242   23:50   0.00   54.3    58    2.3   199     4.3   853.1    0.00 
 243    0:00   0.00   53.7    59    1.6   148     2.9   853.0    0.00 
 243    0:10   0.00   54.2    56    1.7   136     2.7   853.1    0.00 
 243    0:20   0.00   53.7    58    1.3   109     2.8   853.1    0.00 
 243    0:30   0.00   52.6    61    1.8    90     3.5   853.1    0.00 
 243    0:40   0.00   51.4    64    2.1    95     2.9   853.0    0.00 
 243    0:50   0.00   51.5    64    1.8    80     4.0   853.0    0.00 
 243    1:00   0.00   50.1    65    3.1    73     4.4   853.0    0.00 
 243    1:10   0.00   49.8    62    2.2    89     3.4   853.0    0.00 
 243    1:20   0.00   49.8    60    1.6   112     3.4   852.9    0.00 
 243    1:30   0.00   50.3    60    0.9   137     1.6   852.9    0.00 
 243    1:40   0.00   48.3    70    1.3   248     2.7   852.8    0.00 
 243    1:50   0.00   47.6    72    0.2   288     0.9   852.9    0.00 
 243    2:00   0.00   47.8    71    0.9   248     3.1   852.9    0.00 
 243    2:10   0.00   45.6    78    2.3   255     3.6   853.0    0.00 
 243    2:20   0.00   45.7    80    1.4   273     3.2   853.0    0.00 
 243    2:30   0.00   46.3    76    0.4   321     1.2   852.9    0.00 
 243    2:40   0.00   46.3    74    1.6    50     2.9   852.9    0.00 
 243    2:50   0.00   45.9    73    1.7    63     2.9   853.0    0.00 
 243    3:00   0.00   45.8    72    1.0   240     3.8   852.9    0.00 
 243    3:10   0.00   45.0    73    1.0   226     2.4   852.9    0.00 
 243    3:20   0.00   43.5    79    2.1   244     3.3   852.9    0.00 
 243    3:30   0.00   43.5    81    0.3   289     1.4   852.9    0.00 
 243    3:40   0.00   44.1    76    1.1    44     1.5   852.9    0.00 
 243    3:50   0.00   44.4    74    1.3   197     4.0   852.8    0.00 
 243    4:00   0.00   42.0    85    2.4   199     4.4   852.9    0.00 
 243    4:10   0.00   43.3    82    1.3   202     3.2   852.8    0.00 
 243    4:20   0.00   44.1    80    0.9   183     2.9   852.8    0.00 
 243    4:30   0.00   44.8    77    1.0   111     2.7   852.8    0.00 
 243    4:40   0.00   43.2    80    1.8   140     2.6   852.9    0.00 
 243    4:50   0.00   42.3    82    1.1   210     3.1   852.9    0.00 
 243    5:00   0.00   41.0    86    1.6   203     2.1   852.8    0.00 
 243    5:10   0.00   40.9    87    0.9   115     2.5   852.8    0.00 
 243    5:20   0.00   41.0    86    2.7   108     4.2   852.9    0.00 
 243    5:30   0.00   41.3    84    1.6   138     3.8   852.9    0.00 
 243    5:40   0.01   41.8    82    0.1   124     0.7   852.8    0.00 
 243    5:50   0.05   41.8    82    1.6   248     3.2   852.8    0.00 
 243    6:00   0.07   42.0    85    1.3   136     3.8   852.9    0.00 
 243    6:10   0.11   44.0    79    0.4   152     1.4   853.0    0.00 
 243    6:20   0.14   47.3    69    0.5   192     1.8   853.0    0.00 
 243    6:30   0.18   49.6    64    1.5   204     2.3   853.1    0.00 
 243    6:40   0.21   51.8    57    0.9   206     1.8   853.2    0.00 
 243    6:50   0.25   54.6    53    0.2   203     1.1   853.2    0.00 
 243    7:00   0.28   58.4    49    0.4    72     1.6   853.2    0.00 
 243    7:10   0.32   60.6    46    0.1    48     0.9   853.2    0.00 
 243    7:20   0.35   62.3    44    0.5    88     1.8   853.1    0.00 
 243    7:30   0.39   63.0    39    0.7    87     1.8   853.0    0.00 
 243    7:40   0.43   64.2    38    0.5    76     2.6   853.0    0.00 
 243    7:50   0.46   64.8    37    0.8    73     2.4   852.9    0.00 
 243    8:00   0.50   65.5    37    0.9    43     2.5   852.8    0.00 
 243    8:10   0.54   66.4    36    1.0    70     2.4   852.7    0.00 
 243    8:20   0.57   66.8    38    2.1   308     3.9   852.6    0.00 
 243    8:30   0.61   67.1    38    2.7   318     5.7   852.5    0.00 
 243    8:40   0.64   67.8    36    2.2   319     4.1   852.5    0.00 
 243    8:50   0.68   69.8    34    2.4    61     3.8   852.4    0.00 
 243    9:00   0.71   70.8    30    2.0    45     5.1   852.4    0.00 
 243    9:10   0.74   72.2    29    2.0     8     4.3   852.5    0.00 
 243    9:20   0.77   72.7    27    3.4   310     5.8   852.6    0.00 
 243    9:30   0.80   73.3    26    3.1   307     6.0   852.7    0.00 
 243    9:40   0.81   73.7    25    2.7   296     5.7   852.7    0.00 
 243    9:50   0.85   75.1    24    1.9   288     4.5   852.7    0.00 
 243   10:00   0.86   76.2    22    2.1   338     4.9   852.6    0.00 
 243   10:10   0.88   76.9    21    2.9   314     6.4   852.6    0.00 
 243   10:20   0.92   77.6    19    2.7   351     6.0   852.6    0.00 
 243   10:30   0.93   77.5    18    5.6   303    10.0   852.5    0.00 
 243   10:40   0.96   78.3    18    4.8   306     9.2   852.4    0.00 
 243   10:50   0.97   79.0    16    4.3   344     9.5   852.3    0.00 
 243   11:00   0.99   80.1    15    4.3   327     6.9   852.2    0.00 
 243   11:10   1.00   80.5    13    3.2    22     8.8   852.2    0.00 
 243   11:20   1.01   81.2    13    3.4   290     7.1   852.0    0.00 
 243   11:30   1.02   81.3    13    4.0    31     8.6   851.9    0.00 
 243   11:40   1.03   82.1    13    3.1   338     7.8   851.7    0.00 
 243   11:50   1.03   82.8    14    2.9    37     8.3   851.6    0.00 
 243   12:00   1.03   82.8    14    4.0   108     8.5   851.5    0.00 
 243   12:10   1.03   82.8    15    3.9   118     9.6   851.3    0.00 
 243   12:20   1.03   83.5    14    3.1    78     7.9   851.1    0.00 
 243   12:30   1.03   83.8    14    4.1   184     7.6   851.0    0.00 
 243   12:40   1.02   83.8    14    4.8   290    10.1   850.8    0.00 
 243   12:50   1.01   84.7    14    5.5   334    10.1   850.7    0.00 
 243   13:00   0.99   84.2    14    5.4   322    10.4   850.6    0.00 
 243   13:10   0.99   85.0    14    4.2    89     8.2   850.5    0.00 
 243   13:20   0.97   85.2    13    3.5    58     6.0   850.4    0.00 
 243   13:30   0.96   86.5    14    3.4    83     7.8   850.3    0.00 
 243   13:40   0.94   86.2    13    3.3     1    10.2   850.1    0.00 
 243   13:50   0.92   85.9    13    5.6   326     8.9   850.1    0.00 
 243   14:00   0.90   85.9    13    6.0   317    10.0   849.9    0.00 
 243   14:10   0.87   86.3    13    5.2   304    10.0   849.8    0.00 
 243   14:20   0.84   86.4    14    7.1   292    13.3   849.7    0.00 
 243   14:30   0.83   86.2    14    4.8   303     9.2   849.5    0.00 
 243   14:40   0.80   86.1    14    5.7   266    12.5   849.4    0.00 
 243   14:50   0.76   86.6    14    4.8   313    13.9   849.2    0.00 
 243   15:00   0.71   86.5    15    7.4   298    12.2   849.1    0.00 
 243   15:10   0.69   86.7    15    6.9   281    15.1   849.1    0.00 
 243   15:20   0.65   86.5    16    8.7   303    13.8   849.0    0.00 
 243   15:30   0.62   85.9    17   11.6   304    17.2   849.0    0.00 
 243   15:40   0.59   85.8    17    9.4   294    13.8   849.0    0.00 
 243   15:50   0.55   85.9    17   10.9   279    17.4   848.9    0.00 
 243   16:00   0.51   85.6    17   10.7   274    16.3   848.9    0.00 
 243   16:10   0.48   85.1    18   10.9   287    17.6   848.9    0.00 
 243   16:20   0.44   84.3    19   12.5   288    18.8   848.9    0.00 
 243   16:30   0.40   82.9    22   11.4   302    19.6   848.9    0.00 
 243   16:40   0.36   81.9    23   13.1   292    18.9   848.9    0.00 
 243   16:50   0.32   81.4    24   12.8   291    18.5   848.9    0.00 
 243   17:00   0.27   81.0    24   11.9   285    18.4   848.9    0.00 
 243   17:10   0.24   81.1    24    8.8   276    15.7   848.9    0.00 
 243   17:20   0.21   81.4    24   10.4   251    15.8   848.8    0.00 
 243   17:30   0.19   80.7    24   10.7   252    15.5   848.7    0.00 
 243   17:40   0.15   80.3    24   10.5   254    14.9   848.7    0.00 
 243   17:50   0.09   79.4    25   10.3   258    14.9   848.6    0.00 
 243   18:00   0.04   78.1    27    8.5   272    13.6   848.7    0.00 
 243   18:10   0.03   77.2    27    8.9   273    13.6   848.7    0.00 
 243   18:20   0.01   76.6    28    6.3   290    11.1   848.7    0.00 
 243   18:30   0.01   75.4    30    6.6   303    12.7   848.9    0.00 
 243   18:40   0.00   75.2    30    6.4   301    11.0   848.9    0.00 
 243   18:50   0.00   74.9    30    6.1   286    11.3   848.8    0.00 
 243   19:00   0.00   74.4    30    7.2   267    11.8   848.9    0.00 
 243   19:10   0.00   75.3    27    8.6   274    15.4   848.9    0.00 
 243   19:20   0.00   75.5    27    8.9   270    15.0   849.0    0.00 
 243   19:30   0.00   74.1    28    8.3   273    13.0   849.1    0.00 
 243   19:40   0.00   73.8    29    6.2   275    11.2   849.1    0.00 
 243   19:50   0.00   72.6    30    3.6   217     5.5   849.0    0.00 

Return to Smith Valley graphs page.


Western Regional Climate Center,wrcc@dri.edu